Terminal Aerodrome Forecast
Issued by NWS Shreveport, LA

Home | Current Version | Previous Version | Text Only | Print | Product List | Glossary On
Versions: 1 2 3 4 5 6 7 8 9 10 11 12
000
FTUS44 KSHV 160536
TAFTXK
TAF
KTXK 160536Z 1606/1706 21004KT P6SM BKN250
     FM161600 19007KT P6SM SCT200 BKN250
     FM162200 17007KT P6SM SCT100 BKN150 BKN250
     FM170000 15006KT P6SM SCT050 BKN080
     FM170200 14006KT P6SM -RA BKN040=

USA.gov is the U.S. government's official web portal to all federal, state and local government web resources and services.